Time;durP1;ratioP1;P1;durP2;ratioP2;P2;SDS_P1;SDS_P2;PMS_P1;PMS_P2;Temp;Humidity;BMP_temperature;BMP_pressure;BME280_temperature;BME280_humidity;BME280_pressure;Samples;Min_cycle;Max_cycle;Signal;HPM_P1;HPM_P2
2021/12/13 00:00:19;;;;;;;40.53;15.75;;;;;;;-3.30;77.45;100305.44;5069911;28;20059;-71
2021/12/13 00:02:53;;;;;;;49.10;16.73;;;;;;;-3.46;77.51;100276.91;5060368;28;20130;-72
2021/12/13 00:05:25;;;;;;;47.63;16.03;;;;;;;-3.36;77.51;100299.94;5066543;28;20428;-72
2021/12/13 00:07:56;;;;;;;44.73;15.73;;;;;;;-3.37;77.54;100284.91;5068396;28;20045;-73
2021/12/13 00:10:30;;;;;;;46.13;15.80;;;;;;;-3.36;77.37;100292.78;5067210;28;20131;-72
2021/12/13 00:13:04;;;;;;;42.53;16.43;;;;;;;-3.40;77.32;100286.09;5057161;28;20472;-73
2021/12/13 00:15:33;;;;;;;43.67;16.33;;;;;;;-3.39;77.38;100282.41;5061793;28;20498;-72
2021/12/13 00:18:00;;;;;;;52.27;18.97;;;;;;;-3.36;77.35;100276.72;5064379;28;20056;-72
2021/12/13 00:20:36;;;;;;;49.13;16.97;;;;;;;-3.39;77.29;100278.91;5068722;28;20135;-73
2021/12/13 00:23:18;;;;;;;61.97;21.97;;;;;;;-3.48;77.62;100281.59;5067366;28;20587;-72
2021/12/13 00:25:48;;;;;;;54.63;21.43;;;;;;;-3.47;77.71;100296.66;5060700;28;20044;-73
2021/12/13 00:28:17;;;;;;;69.57;25.80;;;;;;;-3.46;77.75;100284.94;5065226;28;20127;-72
2021/12/13 00:30:53;;;;;;;109.27;37.00;;;;;;;-3.45;77.85;100285.75;5071364;28;20051;-72
2021/12/13 00:33:32;;;;;;;104.13;36.60;;;;;;;-3.43;77.60;100284.59;5071711;28;20057;-72
2021/12/13 00:36:05;;;;;;;59.93;22.43;;;;;;;-3.40;77.42;100288.78;5068554;28;20509;-73
2021/12/13 00:38:39;;;;;;;72.77;26.60;;;;;;;-3.38;77.66;100294.78;5062909;28;20493;-72
2021/12/13 00:41:10;;;;;;;75.83;26.70;;;;;;;-3.40;77.54;100293.28;5062458;28;20053;-72
2021/12/13 00:43:42;;;;;;;85.30;28.63;;;;;;;-3.39;77.55;100298.47;5057363;28;20537;-72
2021/12/13 00:46:11;;;;;;;109.30;36.13;;;;;;;-3.35;77.56;100291.75;5057742;28;20130;-72
2021/12/13 00:48:43;;;;;;;122.73;37.63;;;;;;;-3.35;77.17;100299.78;5059791;28;20382;-72
2021/12/13 00:51:13;;;;;;;72.43;25.37;;;;;;;-3.37;77.60;100298.28;5069933;28;20408;-72
2021/12/13 00:53:44;;;;;;;83.20;26.23;;;;;;;-3.38;77.62;100297.47;5068146;28;20057;-72
2021/12/13 00:57:01;;;;;;;90.53;29.23;;;;;;;-3.37;77.79;100293.78;5067914;28;20075;-72
2021/12/13 00:59:31;;;;;;;112.03;32.47;;;;;;;-3.38;77.48;100288.59;5003079;28;20089;-72
2021/12/13 01:02:03;;;;;;;97.30;33.93;;;;;;;-3.37;77.56;100279.56;5003752;28;20054;-72
2021/12/13 01:04:55;;;;;;;122.73;36.33;;;;;;;-3.33;77.57;100287.06;5035299;28;20048;-72
2021/12/13 01:07:54;;;;;;;117.00;38.57;;;;;;;-3.33;77.47;100291.59;5067897;28;20420;-71
2021/12/13 01:11:01;;;;;;;91.60;26.80;;;;;;;-3.35;77.42;100288.28;5069869;28;20076;-72
2021/12/13 01:13:34;;;;;;;127.10;35.55;;;;;;;-3.37;77.60;100298.28;5064226;28;20102;-71
2021/12/13 01:16:14;;;;;;;121.87;35.23;;;;;;;-3.35;77.29;100290.94;5064671;28;20051;-71
2021/12/13 01:19:01;;;;;;;94.63;28.27;;;;;;;-3.37;77.45;100282.22;5061256;28;20071;-72
2021/12/13 01:21:39;;;;;;;82.88;25.17;;;;;;;-3.32;77.63;100294.09;5068009;28;20037;-72
2021/12/13 01:24:11;;;;;;;;;;;;;;;-3.34;77.47;100292.63;5063678;28;20044;-72
2021/12/13 01:26:42;;;;;;;88.33;26.30;;;;;;;-3.35;77.48;100272.22;5069587;28;19924;-71
2021/12/13 01:29:11;;;;;;;94.00;28.83;;;;;;;-3.38;77.43;100273.38;5067523;28;20143;-71
2021/12/13 01:31:43;;;;;;;95.83;30.03;;;;;;;-3.39;77.74;100274.41;5062802;28;20467;-72
2021/12/13 01:34:10;;;;;;;100.93;31.90;;;;;;;-3.35;77.62;100274.91;5055997;28;20122;-74
2021/12/13 01:36:44;;;;;;;116.82;33.55;;;;;;;-3.31;77.32;100279.72;5065053;28;20056;-72
2021/12/13 01:39:15;;;;;;;134.43;39.53;;;;;;;-3.26;77.42;100268.50;5051038;28;20127;-69
2021/12/13 01:41:46;;;;;;;117.53;36.13;;;;;;;-3.23;77.50;100281.53;5065850;28;20046;-69
2021/12/13 01:44:17;;;;;;;140.27;42.33;;;;;;;-3.25;77.30;100270.16;5061625;28;20080;-68
2021/12/13 01:46:48;;;;;;;149.83;45.83;;;;;;;-3.28;77.57;100268.69;5065406;28;20048;-68
2021/12/13 01:49:15;;;;;;;120.87;35.40;;;;;;;-3.26;77.65;100273.03;5065917;28;20590;-69
2021/12/13 01:51:41;;;;;;;119.18;34.13;;;;;;;-3.25;77.65;100272.03;5063088;28;20064;-69
2021/12/13 01:54:12;;;;;;;83.50;27.17;;;;;;;-3.29;77.72;100271.53;5061912;28;20082;-69
2021/12/13 01:56:55;;;;;;;80.57;22.87;;;;;;;-3.30;77.83;100268.00;5065834;28;20131;-69
2021/12/13 01:59:51;;;;;;;84.13;23.43;;;;;;;-3.28;77.52;100271.38;5068563;28;20497;-69
2021/12/13 02:02:21;;;;;;;68.53;23.27;;;;;;;-3.25;77.82;100270.16;5069676;28;20460;-69
2021/12/13 02:04:57;;;;;;;65.53;21.60;;;;;;;-3.28;77.63;100274.03;5062357;28;20047;-68
2021/12/13 02:07:26;;;;;;;66.77;22.87;;;;;;;-3.25;77.50;100266.69;5065656;28;20412;-69
2021/12/13 02:09:52;;;;;;;70.53;21.10;;;;;;;-3.31;77.53;100277.03;5058400;28;20226;-69
2021/12/13 02:12:20;;;;;;;60.87;18.73;;;;;;;-3.32;77.86;100263.84;5059895;28;20117;-70
2021/12/13 02:16:55;;;;;;;57.70;19.63;;;;;;;-3.27;77.37;100264.16;5069920;28;20052;-69
2021/12/13 02:17:38;;;;;;;59.63;19.43;;;;;;;-3.30;77.22;100248.47;5069793;28;20049;-69
2021/12/13 02:20:09;;;;;;;63.10;20.77;;;;;;;-3.22;77.11;100269.00;5067727;28;20052;-71
2021/12/13 02:22:40;;;;;;;57.80;19.37;;;;;;;-3.26;77.43;100270.34;5070681;28;20190;-71
2021/12/13 02:25:22;;;;;;;65.63;20.93;;;;;;;-3.25;77.26;100261.31;5066575;28;20234;-70
2021/12/13 02:27:54;;;;;;;53.57;18.57;;;;;;;-3.21;77.12;100268.00;5070048;28;20420;-70
2021/12/13 02:30:26;;;;;;;49.63;17.27;;;;;;;-3.29;77.20;100250.94;5070430;28;20071;-69
2021/12/13 02:32:53;;;;;;;49.10;17.80;;;;;;;-3.26;77.07;100252.44;5074046;28;20186;-69
2021/12/13 02:35:22;;;;;;;48.07;17.07;;;;;;;-3.21;77.02;100243.91;5064525;28;20049;-70
2021/12/13 02:37:50;;;;;;;47.67;15.60;;;;;;;-3.29;77.02;100239.44;5067990;28;20406;-70
2021/12/13 02:40:18;;;;;;;;;;;;;;;-3.28;77.26;100244.63;5064656;28;20136;-70
2021/12/13 02:42:46;;;;;;;41.97;15.30;;;;;;;-3.26;76.91;100254.31;5054410;28;20411;-70
2021/12/13 02:45:17;;;;;;;44.45;14.70;;;;;;;-3.24;76.79;100252.28;5070096;28;20053;-69
2021/12/13 02:47:53;;;;;;;39.17;14.30;;;;;;;-3.30;76.77;100240.44;5052586;28;20149;-70
2021/12/13 02:50:27;;;;;;;41.53;14.07;;;;;;;-3.30;76.67;100238.56;5055665;28;20060;-71
2021/12/13 02:52:57;;;;;;;33.80;13.17;;;;;;;-3.33;77.04;100230.91;5070402;28;20076;-70
2021/12/13 02:55:28;;;;;;;39.40;13.60;;;;;;;-3.30;76.87;100235.91;5071544;28;20402;-70
2021/12/13 02:57:56;;;;;;;33.83;12.37;;;;;;;-3.25;76.93;100224.69;5064299;28;20045;-70
2021/12/13 03:00:25;;;;;;;35.22;13.48;;;;;;;-3.25;76.66;100240.75;5062453;28;20106;-70
2021/12/13 03:02:56;;;;;;;36.77;12.73;;;;;;;-3.29;76.78;100247.44;5071619;28;20048;-70
2021/12/13 03:05:25;;;;;;;36.47;13.20;;;;;;;-3.28;76.94;100239.28;5073115;28;20052;-70
2021/12/13 03:07:56;;;;;;;41.27;13.93;;;;;;;-3.27;76.86;100242.75;5038990;28;20124;-71
2021/12/13 03:10:29;;;;;;;39.83;13.53;;;;;;;-3.29;76.84;100232.22;5051726;28;20045;-70
2021/12/13 03:12:56;;;;;;;35.50;13.03;;;;;;;-3.25;76.88;100219.34;5063929;28;20060;-70
2021/12/13 03:15:27;;;;;;;39.47;13.10;;;;;;;-3.21;76.63;100235.88;5060512;28;20152;-71
2021/12/13 03:17:58;;;;;;;33.97;12.83;;;;;;;-3.17;76.64;100227.34;5068172;28;20597;-71
2021/12/13 03:20:37;;;;;;;38.73;13.83;;;;;;;-3.17;76.45;100231.84;5072504;28;20049;-70
2021/12/13 03:23:17;;;;;;;40.07;13.87;;;;;;;-3.18;76.58;100225.69;5070753;28;20045;-70
2021/12/13 03:26:03;;;;;;;32.00;13.03;;;;;;;-3.15;76.14;100222.66;5071044;28;20130;-70
2021/12/13 03:28:44;;;;;;;36.60;12.90;;;;;;;-3.18;76.52;100219.47;5070911;28;20059;-71
2021/12/13 03:31:13;;;;;;;35.20;12.57;;;;;;;-3.16;76.28;100220.97;5069459;28;20052;-71
2021/12/13 03:33:46;;;;;;;32.80;12.57;;;;;;;-3.15;76.42;100201.25;5070737;28;20048;-69
2021/12/13 03:36:18;;;;;;;38.20;12.80;;;;;;;-3.15;76.39;100203.06;5072161;28;20063;-70
2021/12/13 03:38:49;;;;;;;36.10;12.60;;;;;;;-3.24;76.56;100206.81;5052934;28;20053;-69
2021/12/13 03:41:18;;;;;;;40.20;12.80;;;;;;;-3.22;76.71;100210.97;5052882;28;20049;-70
2021/12/13 03:43:49;;;;;;;37.70;12.83;;;;;;;-3.21;76.53;100215.31;5068449;28;20080;-71
2021/12/13 03:46:18;;;;;;;41.17;12.87;;;;;;;-3.29;76.37;100212.69;5054313;28;20055;-71
2021/12/13 03:48:47;;;;;;;38.47;13.97;;;;;;;-3.22;76.59;100219.00;5053873;28;20616;-71
2021/12/13 03:51:22;;;;;;;39.33;13.53;;;;;;;-3.22;76.67;100212.81;5067014;28;20039;-71
2021/12/13 03:53:52;;;;;;;36.13;12.90;;;;;;;-3.17;76.56;100219.31;5052160;28;20052;-71
2021/12/13 03:56:21;;;;;;;40.57;13.73;;;;;;;-3.20;76.81;100221.50;5056324;28;20049;-71
2021/12/13 03:58:51;;;;;;;41.27;14.33;;;;;;;-3.23;76.72;100222.66;5063399;28;20401;-71
2021/12/13 04:01:21;;;;;;;42.93;13.27;;;;;;;-3.20;76.59;100214.31;5055992;28;20048;-71
2021/12/13 04:03:51;;;;;;;39.73;13.60;;;;;;;-3.19;76.62;100201.75;5054718;28;20109;-71
2021/12/13 04:06:19;;;;;;;40.87;14.83;;;;;;;-3.27;76.72;100191.94;5070566;28;20040;-70
2021/12/13 04:08:46;;;;;;;41.70;15.53;;;;;;;-3.24;76.87;100190.75;5069319;28;20055;-71
2021/12/13 04:11:15;;;;;;;46.60;14.80;;;;;;;-3.19;76.83;100207.97;5065132;28;20052;-71
2021/12/13 04:13:45;;;;;;;42.93;14.53;;;;;;;-3.22;76.78;100188.75;5050873;28;20064;-71
2021/12/13 04:16:18;;;;;;;39.17;14.70;;;;;;;-3.13;76.65;100190.34;5056950;28;20051;-70
2021/12/13 04:21:17;;;;;;;43.10;15.30;;;;;;;-3.18;76.82;100188.22;5067750;28;20041;-70
2021/12/13 04:23:49;;;;;;;39.83;14.30;;;;;;;-3.23;77.04;100187.91;5070311;28;20076;-69
2021/12/13 04:26:18;;;;;;;51.50;14.93;;;;;;;-3.18;77.37;100187.38;5067348;28;20135;-68
2021/12/13 04:28:47;;;;;;;47.17;15.73;;;;;;;-3.22;77.00;100191.41;5067700;28;20102;-68
2021/12/13 04:31:18;;;;;;;44.50;14.87;;;;;;;-3.17;76.97;100189.03;5061841;28;20049;-68
2021/12/13 04:33:46;;;;;;;54.20;17.90;;;;;;;-3.21;77.07;100179.72;5059562;28;20052;-69
2021/12/13 04:36:18;;;;;;;42.60;15.03;;;;;;;-3.22;77.23;100176.19;5070010;28;20094;-69
2021/12/13 04:38:51;;;;;;;45.90;14.60;;;;;;;-3.22;77.12;100164.66;5068035;28;20040;-69
2021/12/13 04:41:24;;;;;;;50.80;16.77;;;;;;;-3.19;77.34;100170.50;5058197;28;20048;-68
2021/12/13 04:43:56;;;;;;;57.23;18.57;;;;;;;-3.20;77.24;100173.34;5066183;28;20554;-67
2021/12/13 04:46:26;;;;;;;57.50;18.37;;;;;;;-3.13;77.18;100169.78;5071586;28;20509;-69
2021/12/13 04:48:56;;;;;;;56.40;19.53;;;;;;;-3.10;77.04;100175.81;5055437;28;20049;-69
2021/12/13 04:51:27;;;;;;;52.63;17.43;;;;;;;-3.11;77.06;100183.00;5056341;28;20049;-69
2021/12/13 04:53:57;;;;;;;47.40;15.57;;;;;;;-3.16;77.19;100174.66;5065471;28;20056;-69
2021/12/13 04:56:28;;;;;;;52.53;15.43;;;;;;;-3.15;77.30;100170.97;5071439;28;20037;-69
2021/12/13 04:58:57;;;;;;;48.10;16.20;;;;;;;-3.14;77.13;100176.16;5068945;28;20437;-69
2021/12/13 05:01:24;;;;;;;48.17;15.30;;;;;;;-3.16;77.64;100171.97;5059865;28;20615;-69
2021/12/13 05:03:54;;;;;;;58.55;14.95;;;;;;;-3.18;77.37;100169.50;5071410;28;20097;-69
2021/12/13 05:06:25;;;;;;;48.53;16.37;;;;;;;-3.15;77.40;100173.66;5070572;28;20044;-69
2021/12/13 05:08:56;;;;;;;51.60;15.77;;;;;;;-3.17;77.37;100175.66;5068434;28;20540;-69
2021/12/13 05:11:27;;;;;;;58.70;16.77;;;;;;;-3.20;77.40;100176.03;5062304;28;20057;-73
2021/12/13 05:13:56;;;;;;;57.83;16.17;;;;;;;-3.20;77.51;100176.03;5064841;28;20459;-75
2021/12/13 05:16:35;;;;;;;49.27;15.63;;;;;;;-3.18;77.64;100182.03;5070366;28;20103;-70
2021/12/13 05:19:02;;;;;;;45.13;16.20;;;;;;;-3.15;77.71;100173.66;5051282;28;20790;-72
2021/12/13 05:21:36;;;;;;;52.15;17.17;;;;;;;-3.17;77.40;100173.00;5064959;28;20132;-72
2021/12/13 05:24:07;;;;;;;56.03;16.10;;;;;;;-3.20;77.60;100179.53;5058507;28;20044;-71
2021/12/13 05:26:37;;;;;;;55.40;17.30;;;;;;;-3.18;77.51;100165.97;5066394;28;20054;-72
2021/12/13 05:29:19;;;;;;;48.80;17.43;;;;;;;-3.12;77.41;100165.28;5062646;28;20498;-69
2021/12/13 05:31:51;;;;;;;77.63;21.77;;;;;;;-3.09;77.49;100178.31;5064237;28;20632;-70
2021/12/13 05:34:17;;;;;;;72.63;20.83;;;;;;;-3.11;77.26;100166.97;5066499;28;20078;-70
2021/12/13 05:36:56;;;;;;;60.23;19.20;;;;;;;-3.09;77.40;100181.00;5068905;28;20040;-70
2021/12/13 05:39:22;;;;;;;54.50;17.40;;;;;;;-3.15;77.70;100166.47;5060866;28;20056;-71
2021/12/13 05:41:52;;;;;;;63.07;18.13;;;;;;;-3.14;77.46;100176.16;5046553;28;20143;-69
2021/12/13 05:44:26;;;;;;;55.97;17.57;;;;;;;-3.11;77.77;100176.81;5065453;28;20505;-69
2021/12/13 05:46:53;;;;;;;62.63;18.03;;;;;;;-3.20;77.53;100174.19;5033137;28;20051;-70
2021/12/13 05:49:24;;;;;;;58.65;17.67;;;;;;;-3.17;77.65;100186.38;5066727;28;20048;-70
2021/12/13 05:51:54;;;;;;;54.77;16.03;;;;;;;-3.15;77.64;100176.31;5059759;28;20048;-70
2021/12/13 05:54:26;;;;;;;73.30;20.70;;;;;;;-3.25;77.86;100170.38;5065648;28;20052;-72
2021/12/13 05:56:57;;;;;;;62.20;19.13;;;;;;;-3.19;77.83;100183.88;5066225;28;20047;-70
2021/12/13 05:59:28;;;;;;;59.50;19.30;;;;;;;-3.08;77.70;100192.50;5045334;28;20055;-70
2021/12/13 06:02:02;;;;;;;64.60;17.93;;;;;;;-3.08;77.68;100181.81;5067459;28;20136;-69
2021/12/13 06:04:36;;;;;;;68.63;19.87;;;;;;;-3.05;77.59;100181.44;5057035;28;20056;-69
2021/12/13 06:07:15;;;;;;;87.47;21.70;;;;;;;-3.05;77.72;100181.44;5062185;28;20048;-69
2021/12/13 06:10:05;;;;;;;77.87;22.60;;;;;;;-3.06;77.55;100169.06;5042308;28;20052;-68
2021/12/13 06:12:37;;;;;;;68.80;20.73;;;;;;;-3.02;77.47;100176.59;5052899;28;20182;-68
2021/12/13 06:15:24;;;;;;;73.27;20.83;;;;;;;-3.02;77.37;100179.25;5065346;28;20063;-76
2021/12/13 06:18:18;;;;;;;83.57;22.67;;;;;;;-3.04;77.68;100175.94;5055603;28;20041;-75
2021/12/13 06:20:50;;;;;;;110.33;28.43;;;;;;;-3.03;77.61;100182.13;5059117;28;20051;-75
2021/12/13 06:23:20;;;;;;;78.07;24.63;;;;;;;-3.07;77.52;100181.63;5059077;28;20284;-77
2021/12/13 06:25:49;;;;;;;89.47;24.90;;;;;;;-3.09;77.85;100180.13;5065849;28;20048;-75
2021/12/13 06:28:22;;;;;;;84.67;23.53;;;;;;;-3.10;77.75;100184.69;5066875;28;20522;-76
2021/12/13 06:30:59;;;;;;;90.50;25.07;;;;;;;-3.10;77.76;100187.34;5057581;28;20469;-76
2021/12/13 06:33:27;;;;;;;79.57;23.20;;;;;;;-3.15;77.71;100171.81;5067445;28;20154;-76
2021/12/13 06:35:57;;;;;;;81.43;23.02;;;;;;;-3.04;77.74;100170.59;5056469;28;20051;-75
2021/12/13 06:38:36;;;;;;;83.27;22.47;;;;;;;-3.08;77.60;100168.44;5058217;28;20481;-76
2021/12/13 06:41:08;;;;;;;80.67;23.37;;;;;;;-3.07;77.76;100170.94;5062293;28;20594;-75
2021/12/13 06:43:37;;;;;;;88.50;24.40;;;;;;;-3.02;77.88;100165.88;5064053;28;20044;-75
2021/12/13 06:46:09;;;;;;;97.43;26.00;;;;;;;-3.05;77.60;100168.06;5064284;28;20044;-76
2021/12/13 06:48:40;;;;;;;91.60;27.60;;;;;;;-3.06;77.86;100169.06;5061275;28;20121;-76
2021/12/13 06:51:09;;;;;;;75.70;22.03;;;;;;;-3.11;77.79;100171.47;5051520;28;20111;-75
2021/12/13 06:53:36;;;;;;;100.97;27.67;;;;;;;-3.11;77.98;100179.50;5067218;28;20512;-75
2021/12/13 06:56:22;;;;;;;96.20;26.77;;;;;;;-3.09;77.84;100188.16;5069541;28;20052;-74
2021/12/13 06:58:50;;;;;;;95.80;30.00;;;;;;;-3.11;77.73;100177.66;5060806;28;20055;-76
2021/12/13 07:01:18;;;;;;;69.40;23.03;;;;;;;-3.17;77.66;100167.63;5070265;28;20079;-76
2021/12/13 07:03:53;;;;;;;73.37;22.03;;;;;;;-3.06;77.63;100179.78;5067708;28;20045;-76
2021/12/13 07:06:20;;;;;;;70.70;22.87;;;;;;;-3.05;77.40;100182.28;5067987;28;20098;-76
2021/12/13 07:08:47;;;;;;;77.03;24.13;;;;;;;-3.02;77.42;100175.78;5055144;28;20508;-76
2021/12/13 07:11:20;;;;;;;88.17;25.67;;;;;;;-3.02;77.46;100173.09;5061932;28;20409;-76
2021/12/13 07:13:50;;;;;;;78.10;23.93;;;;;;;-3.04;77.56;100173.25;5068735;28;20040;-77
2021/12/13 07:16:22;;;;;;;73.17;24.27;;;;;;;-3.08;76.98;100174.63;5058655;28;20037;-76
2021/12/13 07:18:54;;;;;;;69.63;22.47;;;;;;;-3.10;77.45;100173.13;5064906;28;20424;-76
2021/12/13 07:21:26;;;;;;;77.07;27.43;;;;;;;-3.08;77.36;100163.91;5069459;28;20048;-76
2021/12/13 07:24:05;;;;;;;99.90;30.87;;;;;;;-3.06;76.76;100171.75;5072348;28;20037;-76
2021/12/13 07:26:34;;;;;;;91.73;27.07;;;;;;;-3.06;77.08;100185.13;5060857;28;20047;-75
2021/12/13 07:29:05;;;;;;;96.33;28.90;;;;;;;-2.98;76.87;100182.44;5069041;28;20135;-76
2021/12/13 07:31:34;;;;;;;81.27;24.57;;;;;;;-2.99;76.73;100175.41;5068393;28;20340;-76
2021/12/13 07:34:09;;;;;;;81.23;25.63;;;;;;;-2.97;76.48;100185.91;5066026;28;20052;-75
2021/12/13 07:36:37;;;;;;;76.70;25.60;;;;;;;-2.99;76.74;100172.72;5071324;28;20079;-76
2021/12/13 07:39:11;;;;;;;68.47;22.45;;;;;;;-2.97;76.38;100192.13;5068368;28;20053;-76
2021/12/13 07:41:43;;;;;;;69.80;22.50;;;;;;;-2.96;76.37;100195.66;5047528;28;20143;-68
2021/12/13 07:44:25;;;;;;;68.03;21.57;;;;;;;-2.94;76.10;100188.28;5053924;28;20052;-68
2021/12/13 07:47:01;;;;;;;58.57;20.90;;;;;;;-3.02;76.51;100194.50;5056992;28;20045;-68
2021/12/13 07:49:32;;;;;;;60.10;20.07;;;;;;;-2.96;76.27;100184.94;5066993;28;20434;-70
2021/12/13 07:52:02;;;;;;;60.03;21.63;;;;;;;-2.98;76.35;100193.13;5067388;28;20514;-70
2021/12/13 07:54:37;;;;;;;61.10;20.40;;;;;;;-2.89;76.28;100189.41;5064287;28;20063;-71
2021/12/13 07:57:13;;;;;;;62.27;21.30;;;;;;;-2.93;76.19;100165.84;5067079;28;20044;-70
2021/12/13 07:59:39;;;;;;;69.47;20.97;;;;;;;-2.86;76.12;100188.19;5058696;28;20052;-69
2021/12/13 08:02:17;;;;;;;61.53;21.17;;;;;;;-2.80;75.93;100182.16;5055993;28;20091;-70
2021/12/13 08:04:48;;;;;;;67.50;21.50;;;;;;;-2.79;75.92;100177.63;5062965;28;20161;-69
2021/12/13 08:07:23;;;;;;;65.90;21.47;;;;;;;-2.83;75.83;100184.34;5040847;28;20106;-69
2021/12/13 08:09:54;;;;;;;62.03;21.47;;;;;;;-2.80;76.11;100184.84;5064264;28;20045;-69
2021/12/13 08:12:23;;;;;;;64.53;20.70;;;;;;;-2.76;75.79;100172.75;5067522;28;20057;-70
2021/12/13 08:14:53;;;;;;;58.57;21.53;;;;;;;-2.79;75.72;100186.50;5045406;28;20040;-69
2021/12/13 08:17:24;;;;;;;57.33;20.63;;;;;;;-2.78;75.61;100179.28;5054730;28;20049;-70
2021/12/13 08:19:54;;;;;;;78.00;21.73;;;;;;;-2.75;75.61;100193.16;5063505;28;20067;-70
2021/12/13 08:22:22;;;;;;;66.00;21.67;;;;;;;-2.79;75.51;100177.63;5066051;28;20041;-71
2021/12/13 08:24:51;;;;;;;66.30;20.80;;;;;;;-2.70;75.59;100179.25;5064699;28;20421;-76
2021/12/13 08:27:22;;;;;;;59.03;21.47;;;;;;;-2.66;75.35;100182.38;5061872;28;20095;-70
2021/12/13 08:29:50;;;;;;;57.47;20.97;;;;;;;-2.69;75.45;100185.41;5067285;28;20089;-77
2021/12/13 08:32:20;;;;;;;58.80;21.05;;;;;;;-2.70;75.38;100176.56;5066171;28;20047;-77
2021/12/13 08:34:50;;;;;;;63.27;20.07;;;;;;;-2.69;75.30;100178.22;5061703;28;20672;-77
2021/12/13 08:37:23;;;;;;;67.40;21.37;;;;;;;-2.65;75.05;100176.84;5078714;28;20052;-77
2021/12/13 08:39:54;;;;;;;72.77;21.90;;;;;;;-2.69;75.07;100172.88;5056199;28;20045;-76
2021/12/13 08:42:24;;;;;;;54.97;19.40;;;;;;;-2.64;75.22;100173.16;5060188;28;20053;-76
2021/12/13 08:44:57;;;;;;;56.67;20.03;;;;;;;-2.67;75.18;100170.84;5064102;28;20041;-76
2021/12/13 08:47:31;;;;;;;58.83;20.27;;;;;;;-2.68;75.00;100160.31;5065705;28;20102;-76
2021/12/13 08:50:03;;;;;;;57.43;19.77;;;;;;;-2.68;75.08;100160.31;5064326;28;20044;-77
2021/12/13 08:52:33;;;;;;;53.37;20.53;;;;;;;-2.60;74.97;100168.28;5066754;28;20048;-76
2021/12/13 08:55:07;;;;;;;54.67;20.10;;;;;;;-2.59;74.97;100181.47;5058168;28;20712;-75
2021/12/13 08:57:38;;;;;;;59.10;20.83;;;;;;;-2.57;74.70;100174.13;5066494;28;20044;-77
2021/12/13 09:00:32;;;;;;;50.07;19.17;;;;;;;-2.49;74.57;100173.22;5062923;28;20102;-77
2021/12/13 09:03:11;;;;;;;61.97;20.00;;;;;;;-2.48;74.69;100174.91;5015343;28;20422;-71
2021/12/13 09:05:47;;;;;;;57.07;19.97;;;;;;;-2.50;74.78;100178.75;5057635;28;20143;-66
2021/12/13 09:08:15;;;;;;;62.53;20.73;;;;;;;-2.52;74.75;100173.56;5058347;28;20049;-68
2021/12/13 09:10:45;;;;;;;59.97;20.70;;;;;;;-2.55;74.70;100170.44;5064723;28;20041;-68
2021/12/13 09:13:16;;;;;;;49.33;19.73;;;;;;;-2.54;74.68;100162.19;5066040;28;20076;-66
2021/12/13 09:15:43;;;;;;;62.20;21.73;;;;;;;-2.45;74.62;100161.13;5063958;28;20083;-68
2021/12/13 09:18:17;;;;;;;61.95;20.88;;;;;;;-2.51;74.45;100134.25;5071419;28;20048;-68
2021/12/13 09:20:48;;;;;;;53.33;20.73;;;;;;;-2.39;74.16;100145.34;5053232;28;20469;-68
2021/12/13 09:23:17;;;;;;;55.73;21.00;;;;;;;-2.33;74.15;100145.47;5066686;28;20551;-67
2021/12/13 09:25:47;;;;;;;58.80;21.13;;;;;;;-2.33;74.24;100142.78;5069801;28;20074;-67
2021/12/13 09:28:22;;;;;;;47.83;19.63;;;;;;;-2.39;74.22;100115.88;5071829;28;20590;-68
2021/12/13 09:30:53;;;;;;;63.23;19.93;;;;;;;-2.28;74.15;100132.34;5061259;28;20049;-67
2021/12/13 09:33:21;;;;;;;58.80;20.53;;;;;;;-2.32;74.11;100135.59;5056477;28;20139;-67
2021/12/13 09:35:53;;;;;;;50.10;19.80;;;;;;;-2.31;73.78;100126.53;5062707;28;20041;-68
2021/12/13 09:38:37;;;;;;;63.90;21.20;;;;;;;-2.37;74.12;100095.09;5051740;28;20093;-68
2021/12/13 09:41:11;;;;;;;55.57;21.77;;;;;;;-2.32;74.20;100111.47;5066986;28;20469;-68
2021/12/13 09:43:42;;;;;;;57.87;20.87;;;;;;;-2.24;74.22;100113.25;5065569;28;20097;-68
2021/12/13 09:46:10;;;;;;;63.70;23.40;;;;;;;-2.20;74.00;100118.03;5068070;28;20424;-67
2021/12/13 09:48:40;;;;;;;59.63;21.87;;;;;;;-2.22;73.90;100108.53;5063982;28;20048;-68
2021/12/13 09:51:15;;;;;;;54.57;21.37;;;;;;;-2.20;73.93;100112.66;5059077;28;20049;-68
2021/12/13 09:53:42;;;;;;;58.57;21.13;;;;;;;-2.17;73.98;100106.13;5063183;28;20131;-67
2021/12/13 09:56:13;;;;;;;54.70;21.75;;;;;;;-2.15;73.76;100107.63;5066098;28;20362;-68
2021/12/13 09:58:43;;;;;;;52.00;19.50;;;;;;;-2.20;74.00;100101.94;5065439;28;20044;-69
2021/12/13 10:01:14;;;;;;;50.07;20.77;;;;;;;-2.21;74.03;100116.38;5066729;28;20402;-68
2021/12/13 10:03:50;;;;;;;54.60;20.17;;;;;;;-2.19;74.03;100111.66;5069421;28;20063;-68
2021/12/13 10:06:22;;;;;;;54.67;21.13;;;;;;;-2.17;74.16;100112.34;5061173;28;20049;-69
2021/12/13 10:08:54;;;;;;;58.63;21.27;;;;;;;-2.11;74.00;100107.25;5043948;28;20058;-68
2021/12/13 10:11:24;;;;;;;53.40;19.90;;;;;;;-2.05;74.05;100103.81;5060887;28;20559;-68
2021/12/13 10:13:51;;;;;;;61.17;21.90;;;;;;;-2.03;73.97;100099.09;5073043;28;20044;-66
2021/12/13 10:16:20;;;;;;;48.83;20.27;;;;;;;-2.04;74.02;100097.44;5043861;28;20045;-67
2021/12/13 10:18:49;;;;;;;56.70;20.77;;;;;;;-1.98;73.90;100110.13;5060545;28;20778;-69
2021/12/13 10:21:22;;;;;;;55.67;20.77;;;;;;;-1.95;73.91;100108.91;5061803;28;20132;-68
2021/12/13 10:23:52;;;;;;;59.40;21.57;;;;;;;-1.93;73.88;100105.03;5052319;28;20052;-69
2021/12/13 10:26:19;;;;;;;67.17;22.70;;;;;;;-1.84;73.98;100102.25;5060705;28;20059;-67
2021/12/13 10:28:53;;;;;;;;;;;;;;;-1.84;73.81;100107.63;5060998;28;20187;-67
2021/12/13 10:31:24;;;;;;;60.63;19.67;;;;;;;-1.84;73.64;100102.25;5065910;28;19925;-68
2021/12/13 10:33:52;;;;;;;53.70;21.43;;;;;;;-1.82;73.86;100105.59;5065425;28;20056;-68
2021/12/13 10:36:21;;;;;;;52.80;20.93;;;;;;;-1.92;73.65;100081.75;5044821;28;20385;-68
2021/12/13 10:38:53;;;;;;;62.47;22.77;;;;;;;-1.76;73.70;100103.00;5062155;28;20485;-68
2021/12/13 10:41:24;;;;;;;60.07;22.70;;;;;;;-1.82;74.04;100097.53;5067563;28;20160;-67
2021/12/13 10:43:54;;;;;;;59.80;22.43;;;;;;;-1.78;74.06;100105.03;5058583;28;20148;-67
2021/12/13 10:46:25;;;;;;;61.53;21.50;;;;;;;-1.76;74.24;100097.63;5060219;28;20139;-67
2021/12/13 10:48:56;;;;;;;63.27;22.90;;;;;;;-1.76;74.05;100103.00;5060505;28;20102;-68
2021/12/13 10:51:28;;;;;;;62.27;21.87;;;;;;;-1.65;73.79;100103.53;5071275;28;20057;-68
2021/12/13 10:53:57;;;;;;;62.70;21.77;;;;;;;-1.67;74.01;100103.72;5052566;28;20139;-66
2021/12/13 10:56:27;;;;;;;59.20;22.07;;;;;;;-1.62;73.94;100109.34;5064988;28;20041;-65
2021/12/13 10:58:56;;;;;;;55.73;23.00;;;;;;;-1.63;73.91;100107.69;5070759;28;20139;-70
2021/12/13 11:01:25;;;;;;;56.17;22.10;;;;;;;-1.59;73.84;100100.09;5064340;28;20052;-66
2021/12/13 11:03:54;;;;;;;56.13;22.10;;;;;;;-1.58;73.93;100099.91;5066344;28;20045;-66
2021/12/13 11:06:25;;;;;;;50.77;21.57;;;;;;;-1.57;73.82;100101.56;5067298;28;20051;-67
2021/12/13 11:08:52;;;;;;;56.23;21.03;;;;;;;-1.53;73.84;100107.38;5068813;28;20048;-73
2021/12/13 11:11:23;;;;;;;58.35;22.00;;;;;;;-1.49;73.75;100106.00;5068382;28;20125;-73
2021/12/13 11:13:53;;;;;;;59.37;20.90;;;;;;;-1.44;73.73;100105.44;5063048;28;20048;-72
2021/12/13 11:16:23;;;;;;;53.30;20.57;;;;;;;-1.38;73.63;100110.06;5062549;28;20056;-72
2021/12/13 11:18:50;;;;;;;61.93;22.37;;;;;;;-1.37;73.39;100109.03;5072443;28;20563;-72
2021/12/13 11:21:20;;;;;;;58.20;21.63;;;;;;;-1.38;73.72;100112.75;5064633;28;20037;-72
2021/12/13 11:23:49;;;;;;;52.67;21.80;;;;;;;-1.45;73.85;100107.31;5064472;28;20045;-72
2021/12/13 11:26:21;;;;;;;53.60;19.93;;;;;;;-1.45;73.86;100104.63;5051015;28;20072;-72
2021/12/13 11:28:47;;;;;;;57.47;20.07;;;;;;;-1.41;73.82;100112.28;5064340;28;20467;-73
2021/12/13 11:31:23;;;;;;;53.13;20.07;;;;;;;-1.41;73.92;100105.03;5060826;28;20036;-73
2021/12/13 11:34:28;;;;;;;57.20;20.50;;;;;;;-1.43;74.02;100105.25;5068442;28;20047;-73